sensor_id;sensor_type;location;lat;lon;timestamp;temperature;humidity
22436;DHT22;11385;50.822;4.324;2024-03-08T00:01:54;7.50;99.90
22436;DHT22;11385;50.822;4.324;2024-03-08T00:04:20;7.40;99.90
22436;DHT22;11385;50.822;4.324;2024-03-08T00:06:47;7.30;99.90
22436;DHT22;11385;50.822;4.324;2024-03-08T00:09:14;7.30;99.90
22436;DHT22;11385;50.822;4.324;2024-03-08T00:11:41;7.20;99.90
22436;DHT22;11385;50.822;4.324;2024-03-08T00:14:08;7.30;99.90
22436;DHT22;11385;50.822;4.324;2024-03-08T00:16:35;7.30;99.90
22436;DHT22;11385;50.822;4.324;2024-03-08T00:19:03;7.20;99.90
22436;DHT22;11385;50.822;4.324;2024-03-08T00:21:29;7.10;99.90
22436;DHT22;11385;50.822;4.324;2024-03-08T00:23:57;7.00;99.90
22436;DHT22;11385;50.822;4.324;2024-03-08T00:26:24;6.80;99.90
22436;DHT22;11385;50.822;4.324;2024-03-08T00:28:50;7.00;99.90
22436;DHT22;11385;50.822;4.324;2024-03-08T00:31:17;7.00;99.90
22436;DHT22;11385;50.822;4.324;2024-03-08T00:33:43;6.90;99.90
22436;DHT22;11385;50.822;4.324;2024-03-08T00:36:10;7.00;99.90
22436;DHT22;11385;50.822;4.324;2024-03-08T00:38:37;6.90;99.90
22436;DHT22;11385;50.822;4.324;2024-03-08T00:41:04;6.80;99.90
22436;DHT22;11385;50.822;4.324;2024-03-08T00:43:30;6.80;99.90
22436;DHT22;11385;50.822;4.324;2024-03-08T00:45:57;6.80;99.90
22436;DHT22;11385;50.822;4.324;2024-03-08T00:48:23;6.60;99.90
22436;DHT22;11385;50.822;4.324;2024-03-08T00:50:50;6.80;99.90
22436;DHT22;11385;50.822;4.324;2024-03-08T00:53:18;6.70;99.90
22436;DHT22;11385;50.822;4.324;2024-03-08T00:55:44;6.70;99.90
22436;DHT22;11385;50.822;4.324;2024-03-08T00:58:13;6.80;99.90
22436;DHT22;11385;50.822;4.324;2024-03-08T01:00:39;6.80;99.90
22436;DHT22;11385;50.822;4.324;2024-03-08T01:03:06;6.70;99.90
22436;DHT22;11385;50.822;4.324;2024-03-08T01:05:33;6.70;99.90
22436;DHT22;11385;50.822;4.324;2024-03-08T01:08:01;6.70;99.90
22436;DHT22;11385;50.822;4.324;2024-03-08T01:10:29;6.60;99.90
22436;DHT22;11385;50.822;4.324;2024-03-08T01:12:56;6.50;99.90
22436;DHT22;11385;50.822;4.324;2024-03-08T01:15:23;6.50;99.90
22436;DHT22;11385;50.822;4.324;2024-03-08T01:17:50;6.50;99.90
22436;DHT22;11385;50.822;4.324;2024-03-08T01:20:16;6.60;99.90
22436;DHT22;11385;50.822;4.324;2024-03-08T01:22:43;6.60;99.90
22436;DHT22;11385;50.822;4.324;2024-03-08T01:25:10;6.60;99.90
22436;DHT22;11385;50.822;4.324;2024-03-08T01:27:37;6.50;99.90
22436;DHT22;11385;50.822;4.324;2024-03-08T01:30:04;6.50;99.90
22436;DHT22;11385;50.822;4.324;2024-03-08T01:32:31;6.40;99.90
22436;DHT22;11385;50.822;4.324;2024-03-08T01:34:58;6.50;99.90
22436;DHT22;11385;50.822;4.324;2024-03-08T01:37:25;6.30;99.90
22436;DHT22;11385;50.822;4.324;2024-03-08T01:39:51;6.40;99.90
22436;DHT22;11385;50.822;4.324;2024-03-08T01:42:18;6.40;99.90
22436;DHT22;11385;50.822;4.324;2024-03-08T01:44:45;6.30;99.90
22436;DHT22;11385;50.822;4.324;2024-03-08T01:47:11;6.30;99.90
22436;DHT22;11385;50.822;4.324;2024-03-08T01:49:38;6.20;99.90
22436;DHT22;11385;50.822;4.324;2024-03-08T01:52:05;6.10;99.90
22436;DHT22;11385;50.822;4.324;2024-03-08T01:54:32;6.30;99.90
22436;DHT22;11385;50.822;4.324;2024-03-08T01:56:59;6.40;99.90
22436;DHT22;11385;50.822;4.324;2024-03-08T01:59:27;6.30;99.90
22436;DHT22;11385;50.822;4.324;2024-03-08T02:01:55;6.30;99.90
22436;DHT22;11385;50.822;4.324;2024-03-08T02:04:25;6.30;99.90
22436;DHT22;11385;50.822;4.324;2024-03-08T02:06:51;6.30;99.90
22436;DHT22;11385;50.822;4.324;2024-03-08T02:09:18;6.30;99.90
22436;DHT22;11385;50.822;4.324;2024-03-08T02:11:46;6.10;99.90
22436;DHT22;11385;50.822;4.324;2024-03-08T02:14:12;6.10;99.90
22436;DHT22;11385;50.822;4.324;2024-03-08T02:16:40;6.00;99.90
22436;DHT22;11385;50.822;4.324;2024-03-08T02:19:06;6.10;99.90
22436;DHT22;11385;50.822;4.324;2024-03-08T02:21:35;6.10;99.90
22436;DHT22;11385;50.822;4.324;2024-03-08T02:24:04;6.20;99.90
22436;DHT22;11385;50.822;4.324;2024-03-08T02:26:31;6.20;99.90
22436;DHT22;11385;50.822;4.324;2024-03-08T02:28:58;6.10;99.90
22436;DHT22;11385;50.822;4.324;2024-03-08T02:31:25;6.10;99.90
22436;DHT22;11385;50.822;4.324;2024-03-08T02:33:52;6.00;99.90
22436;DHT22;11385;50.822;4.324;2024-03-08T02:36:21;6.00;99.90
22436;DHT22;11385;50.822;4.324;2024-03-08T02:38:47;6.00;99.90
22436;DHT22;11385;50.822;4.324;2024-03-08T02:41:14;5.90;99.90
22436;DHT22;11385;50.822;4.324;2024-03-08T02:43:41;5.90;99.90
22436;DHT22;11385;50.822;4.324;2024-03-08T02:46:07;5.90;99.90
22436;DHT22;11385;50.822;4.324;2024-03-08T02:48:34;5.80;99.90
22436;DHT22;11385;50.822;4.324;2024-03-08T02:51:01;5.80;99.90
22436;DHT22;11385;50.822;4.324;2024-03-08T02:53:28;5.80;99.90
22436;DHT22;11385;50.822;4.324;2024-03-08T02:55:54;5.70;99.90
22436;DHT22;11385;50.822;4.324;2024-03-08T02:58:21;5.80;99.90
22436;DHT22;11385;50.822;4.324;2024-03-08T03:00:49;5.70;99.90
22436;DHT22;11385;50.822;4.324;2024-03-08T03:03:16;5.60;99.90
22436;DHT22;11385;50.822;4.324;2024-03-08T03:05:42;5.60;99.90
22436;DHT22;11385;50.822;4.324;2024-03-08T03:08:09;5.70;99.90
22436;DHT22;11385;50.822;4.324;2024-03-08T03:10:37;5.50;99.90
22436;DHT22;11385;50.822;4.324;2024-03-08T03:13:04;5.50;99.90
22436;DHT22;11385;50.822;4.324;2024-03-08T03:15:31;5.50;99.90
22436;DHT22;11385;50.822;4.324;2024-03-08T03:17:57;5.50;99.90
22436;DHT22;11385;50.822;4.324;2024-03-08T03:20:24;5.50;99.90
22436;DHT22;11385;50.822;4.324;2024-03-08T03:22:55;5.60;99.90
22436;DHT22;11385;50.822;4.324;2024-03-08T03:25:22;5.60;99.90
22436;DHT22;11385;50.822;4.324;2024-03-08T03:27:52;5.60;99.90
22436;DHT22;11385;50.822;4.324;2024-03-08T03:30:21;5.60;99.90
22436;DHT22;11385;50.822;4.324;2024-03-08T03:32:49;5.60;99.90
22436;DHT22;11385;50.822;4.324;2024-03-08T03:35:18;5.50;99.90
22436;DHT22;11385;50.822;4.324;2024-03-08T03:37:47;5.60;99.90
22436;DHT22;11385;50.822;4.324;2024-03-08T03:40:19;5.40;99.90
22436;DHT22;11385;50.822;4.324;2024-03-08T03:42:46;5.40;99.90
22436;DHT22;11385;50.822;4.324;2024-03-08T03:45:13;5.30;99.90
22436;DHT22;11385;50.822;4.324;2024-03-08T03:47:42;5.40;99.90
22436;DHT22;11385;50.822;4.324;2024-03-08T03:50:09;5.40;99.90
22436;DHT22;11385;50.822;4.324;2024-03-08T03:52:36;5.20;99.90
22436;DHT22;11385;50.822;4.324;2024-03-08T03:55:04;5.10;99.90
22436;DHT22;11385;50.822;4.324;2024-03-08T03:57:31;5.30;99.90
22436;DHT22;11385;50.822;4.324;2024-03-08T03:59:58;5.30;99.90
22436;DHT22;11385;50.822;4.324;2024-03-08T04:02:25;5.20;99.90
22436;DHT22;11385;50.822;4.324;2024-03-08T04:04:53;5.20;99.90
22436;DHT22;11385;50.822;4.324;2024-03-08T04:07:20;5.40;99.90
22436;DHT22;11385;50.822;4.324;2024-03-08T04:09:47;5.30;99.90
22436;DHT22;11385;50.822;4.324;2024-03-08T04:12:14;5.30;99.90
22436;DHT22;11385;50.822;4.324;2024-03-08T04:14:42;5.20;99.90
22436;DHT22;11385;50.822;4.324;2024-03-08T04:17:11;5.20;99.90
22436;DHT22;11385;50.822;4.324;2024-03-08T04:19:38;5.10;99.90
22436;DHT22;11385;50.822;4.324;2024-03-08T04:22:06;5.00;99.90
22436;DHT22;11385;50.822;4.324;2024-03-08T04:24:33;5.00;99.90
22436;DHT22;11385;50.822;4.324;2024-03-08T04:27:00;5.00;99.90
22436;DHT22;11385;50.822;4.324;2024-03-08T04:29:26;5.10;99.90
22436;DHT22;11385;50.822;4.324;2024-03-08T04:31:53;5.00;99.90
22436;DHT22;11385;50.822;4.324;2024-03-08T04:34:21;4.90;99.90
22436;DHT22;11385;50.822;4.324;2024-03-08T04:36:48;5.00;99.90
22436;DHT22;11385;50.822;4.324;2024-03-08T04:39:15;5.10;99.90
22436;DHT22;11385;50.822;4.324;2024-03-08T04:41:43;5.10;99.90
22436;DHT22;11385;50.822;4.324;2024-03-08T04:44:11;4.90;99.90
22436;DHT22;11385;50.822;4.324;2024-03-08T04:46:38;5.10;99.90
22436;DHT22;11385;50.822;4.324;2024-03-08T04:49:05;5.00;99.90
22436;DHT22;11385;50.822;4.324;2024-03-08T04:51:34;5.00;99.90
22436;DHT22;11385;50.822;4.324;2024-03-08T04:54:01;5.00;99.90
22436;DHT22;11385;50.822;4.324;2024-03-08T04:56:27;5.00;99.90
22436;DHT22;11385;50.822;4.324;2024-03-08T04:58:54;4.90;99.90
22436;DHT22;11385;50.822;4.324;2024-03-08T05:01:21;4.80;99.90
22436;DHT22;11385;50.822;4.324;2024-03-08T05:03:47;5.00;99.90
22436;DHT22;11385;50.822;4.324;2024-03-08T05:06:16;4.80;99.90
22436;DHT22;11385;50.822;4.324;2024-03-08T05:08:43;4.80;99.90
22436;DHT22;11385;50.822;4.324;2024-03-08T05:11:09;4.80;99.90
22436;DHT22;11385;50.822;4.324;2024-03-08T05:13:36;4.90;99.90
22436;DHT22;11385;50.822;4.324;2024-03-08T05:16:04;4.70;99.90
22436;DHT22;11385;50.822;4.324;2024-03-08T05:18:31;4.80;99.90
22436;DHT22;11385;50.822;4.324;2024-03-08T05:20:58;4.60;99.90
22436;DHT22;11385;50.822;4.324;2024-03-08T05:23:25;4.70;99.90
22436;DHT22;11385;50.822;4.324;2024-03-08T05:25:53;4.60;99.90
22436;DHT22;11385;50.822;4.324;2024-03-08T05:28:19;4.80;99.90
22436;DHT22;11385;50.822;4.324;2024-03-08T05:30:46;4.80;99.90
22436;DHT22;11385;50.822;4.324;2024-03-08T05:33:13;4.80;99.90
22436;DHT22;11385;50.822;4.324;2024-03-08T05:35:40;4.80;99.90
22436;DHT22;11385;50.822;4.324;2024-03-08T05:38:07;4.60;99.90
22436;DHT22;11385;50.822;4.324;2024-03-08T05:40:33;4.50;99.90
22436;DHT22;11385;50.822;4.324;2024-03-08T05:43:00;4.60;99.90
22436;DHT22;11385;50.822;4.324;2024-03-08T05:45:27;4.70;99.90
22436;DHT22;11385;50.822;4.324;2024-03-08T05:47:54;4.70;99.90
22436;DHT22;11385;50.822;4.324;2024-03-08T05:50:20;4.60;99.90
22436;DHT22;11385;50.822;4.324;2024-03-08T05:52:48;4.50;99.90
22436;DHT22;11385;50.822;4.324;2024-03-08T05:55:15;4.60;99.90
22436;DHT22;11385;50.822;4.324;2024-03-08T05:57:42;4.70;99.90
22436;DHT22;11385;50.822;4.324;2024-03-08T06:00:11;4.70;99.90
22436;DHT22;11385;50.822;4.324;2024-03-08T06:02:38;4.70;99.90
22436;DHT22;11385;50.822;4.324;2024-03-08T06:05:09;4.70;99.90
22436;DHT22;11385;50.822;4.324;2024-03-08T06:07:37;4.80;99.90
22436;DHT22;11385;50.822;4.324;2024-03-08T06:10:09;4.70;99.90
22436;DHT22;11385;50.822;4.324;2024-03-08T06:12:37;4.60;99.90
22436;DHT22;11385;50.822;4.324;2024-03-08T06:15:06;4.60;99.90
22436;DHT22;11385;50.822;4.324;2024-03-08T06:17:33;4.50;99.90
22436;DHT22;11385;50.822;4.324;2024-03-08T06:20:00;4.50;99.90
22436;DHT22;11385;50.822;4.324;2024-03-08T06:22:27;4.70;99.90
22436;DHT22;11385;50.822;4.324;2024-03-08T06:24:56;4.80;99.90
22436;DHT22;11385;50.822;4.324;2024-03-08T06:27:23;4.80;99.90
22436;DHT22;11385;50.822;4.324;2024-03-08T06:29:50;4.80;99.90
22436;DHT22;11385;50.822;4.324;2024-03-08T06:32:17;4.80;99.90
22436;DHT22;11385;50.822;4.324;2024-03-08T06:34:44;4.90;99.90
22436;DHT22;11385;50.822;4.324;2024-03-08T06:37:11;4.80;99.90
22436;DHT22;11385;50.822;4.324;2024-03-08T06:39:38;4.70;99.90
22436;DHT22;11385;50.822;4.324;2024-03-08T06:42:04;4.60;99.90
22436;DHT22;11385;50.822;4.324;2024-03-08T06:44:31;4.60;99.90
22436;DHT22;11385;50.822;4.324;2024-03-08T06:46:58;4.60;99.90
22436;DHT22;11385;50.822;4.324;2024-03-08T06:49:26;4.60;99.90
22436;DHT22;11385;50.822;4.324;2024-03-08T06:51:53;4.70;99.90
22436;DHT22;11385;50.822;4.324;2024-03-08T06:54:19;4.60;99.90
22436;DHT22;11385;50.822;4.324;2024-03-08T06:56:46;4.70;99.90
22436;DHT22;11385;50.822;4.324;2024-03-08T06:59:14;4.60;99.90
22436;DHT22;11385;50.822;4.324;2024-03-08T07:01:40;4.60;99.90
22436;DHT22;11385;50.822;4.324;2024-03-08T07:04:07;4.70;99.90
22436;DHT22;11385;50.822;4.324;2024-03-08T07:06:34;4.70;99.90
22436;DHT22;11385;50.822;4.324;2024-03-08T07:09:00;4.70;99.90
22436;DHT22;11385;50.822;4.324;2024-03-08T07:11:27;4.70;99.90
22436;DHT22;11385;50.822;4.324;2024-03-08T07:13:54;4.70;99.90
22436;DHT22;11385;50.822;4.324;2024-03-08T07:16:21;4.70;99.90
22436;DHT22;11385;50.822;4.324;2024-03-08T07:18:48;4.80;99.90
22436;DHT22;11385;50.822;4.324;2024-03-08T07:21:16;4.80;99.90
22436;DHT22;11385;50.822;4.324;2024-03-08T07:23:44;4.90;99.90
22436;DHT22;11385;50.822;4.324;2024-03-08T07:26:16;5.00;99.90
22436;DHT22;11385;50.822;4.324;2024-03-08T07:28:43;4.90;99.90
22436;DHT22;11385;50.822;4.324;2024-03-08T07:31:09;4.90;99.90
22436;DHT22;11385;50.822;4.324;2024-03-08T07:33:40;4.90;99.90
22436;DHT22;11385;50.822;4.324;2024-03-08T07:36:07;4.90;99.90
22436;DHT22;11385;50.822;4.324;2024-03-08T07:38:34;4.90;99.90
22436;DHT22;11385;50.822;4.324;2024-03-08T07:41:01;5.00;99.90
22436;DHT22;11385;50.822;4.324;2024-03-08T07:43:27;5.10;99.90
22436;DHT22;11385;50.822;4.324;2024-03-08T07:45:54;5.10;99.90
22436;DHT22;11385;50.822;4.324;2024-03-08T07:48:21;5.20;99.90
22436;DHT22;11385;50.822;4.324;2024-03-08T07:50:47;5.30;99.90
22436;DHT22;11385;50.822;4.324;2024-03-08T07:53:15;5.30;99.90
22436;DHT22;11385;50.822;4.324;2024-03-08T07:55:42;5.30;99.90
22436;DHT22;11385;50.822;4.324;2024-03-08T07:58:10;5.30;99.90
22436;DHT22;11385;50.822;4.324;2024-03-08T08:00:37;5.30;99.90
22436;DHT22;11385;50.822;4.324;2024-03-08T08:03:04;5.40;99.90
22436;DHT22;11385;50.822;4.324;2024-03-08T08:05:32;5.50;99.90
22436;DHT22;11385;50.822;4.324;2024-03-08T08:08:02;5.40;99.90
22436;DHT22;11385;50.822;4.324;2024-03-08T08:10:32;5.50;99.90
22436;DHT22;11385;50.822;4.324;2024-03-08T08:12:59;5.50;99.90
22436;DHT22;11385;50.822;4.324;2024-03-08T08:15:26;5.50;99.90
22436;DHT22;11385;50.822;4.324;2024-03-08T08:17:54;5.50;99.90
22436;DHT22;11385;50.822;4.324;2024-03-08T08:20:21;5.70;99.90
22436;DHT22;11385;50.822;4.324;2024-03-08T08:22:49;5.90;99.90
22436;DHT22;11385;50.822;4.324;2024-03-08T08:25:15;6.00;99.90
22436;DHT22;11385;50.822;4.324;2024-03-08T08:27:44;5.90;99.90
22436;DHT22;11385;50.822;4.324;2024-03-08T08:30:17;6.00;99.90
22436;DHT22;11385;50.822;4.324;2024-03-08T08:33:06;6.00;99.90
22436;DHT22;11385;50.822;4.324;2024-03-08T08:35:44;6.10;99.90
22436;DHT22;11385;50.822;4.324;2024-03-08T08:38:21;6.10;99.90
22436;DHT22;11385;50.822;4.324;2024-03-08T08:40:47;6.30;99.90
22436;DHT22;11385;50.822;4.324;2024-03-08T08:43:14;6.30;99.90
22436;DHT22;11385;50.822;4.324;2024-03-08T08:45:41;6.40;99.90
22436;DHT22;11385;50.822;4.324;2024-03-08T08:48:08;6.50;99.90
22436;DHT22;11385;50.822;4.324;2024-03-08T08:50:36;6.60;99.90
22436;DHT22;11385;50.822;4.324;2024-03-08T08:53:04;6.60;99.90
22436;DHT22;11385;50.822;4.324;2024-03-08T08:55:33;6.70;99.90
22436;DHT22;11385;50.822;4.324;2024-03-08T08:58:01;6.70;99.90
22436;DHT22;11385;50.822;4.324;2024-03-08T09:00:29;6.70;99.90
22436;DHT22;11385;50.822;4.324;2024-03-08T09:02:57;6.70;99.90
22436;DHT22;11385;50.822;4.324;2024-03-08T09:05:24;6.90;99.90
22436;DHT22;11385;50.822;4.324;2024-03-08T09:07:50;7.00;99.90
22436;DHT22;11385;50.822;4.324;2024-03-08T09:10:17;7.00;99.90
22436;DHT22;11385;50.822;4.324;2024-03-08T09:12:45;7.10;99.90
22436;DHT22;11385;50.822;4.324;2024-03-08T09:15:11;7.20;99.90
22436;DHT22;11385;50.822;4.324;2024-03-08T09:17:38;7.40;99.90
22436;DHT22;11385;50.822;4.324;2024-03-08T09:20:07;7.40;99.90
22436;DHT22;11385;50.822;4.324;2024-03-08T09:22:35;7.60;99.90
22436;DHT22;11385;50.822;4.324;2024-03-08T09:25:02;7.50;99.90
22436;DHT22;11385;50.822;4.324;2024-03-08T09:27:31;7.50;99.90
22436;DHT22;11385;50.822;4.324;2024-03-08T09:29:57;7.50;99.90
22436;DHT22;11385;50.822;4.324;2024-03-08T09:32:24;7.60;99.90
22436;DHT22;11385;50.822;4.324;2024-03-08T09:34:50;7.70;99.90
22436;DHT22;11385;50.822;4.324;2024-03-08T09:37:17;7.60;99.90
22436;DHT22;11385;50.822;4.324;2024-03-08T09:39:45;7.80;99.90
22436;DHT22;11385;50.822;4.324;2024-03-08T09:42:11;7.70;99.90
22436;DHT22;11385;50.822;4.324;2024-03-08T09:44:46;7.50;99.90
22436;DHT22;11385;50.822;4.324;2024-03-08T09:47:14;7.70;99.90
22436;DHT22;11385;50.822;4.324;2024-03-08T09:49:42;7.90;99.90
22436;DHT22;11385;50.822;4.324;2024-03-08T09:52:09;8.10;99.90
22436;DHT22;11385;50.822;4.324;2024-03-08T09:54:38;8.30;99.90
22436;DHT22;11385;50.822;4.324;2024-03-08T09:57:06;8.10;99.90
22436;DHT22;11385;50.822;4.324;2024-03-08T09:59:35;8.20;99.90
22436;DHT22;11385;50.822;4.324;2024-03-08T10:02:14;8.30;99.90
22436;DHT22;11385;50.822;4.324;2024-03-08T10:04:42;8.60;99.90
22436;DHT22;11385;50.822;4.324;2024-03-08T10:07:09;8.70;99.90
22436;DHT22;11385;50.822;4.324;2024-03-08T10:09:35;8.60;99.90
22436;DHT22;11385;50.822;4.324;2024-03-08T10:12:04;8.60;99.90
22436;DHT22;11385;50.822;4.324;2024-03-08T10:14:32;8.60;99.90
22436;DHT22;11385;50.822;4.324;2024-03-08T10:16:59;8.50;99.90
22436;DHT22;11385;50.822;4.324;2024-03-08T10:19:27;8.70;99.90
22436;DHT22;11385;50.822;4.324;2024-03-08T10:21:56;8.70;99.90
22436;DHT22;11385;50.822;4.324;2024-03-08T10:24:25;8.70;99.90
22436;DHT22;11385;50.822;4.324;2024-03-08T10:26:58;8.80;99.90
22436;DHT22;11385;50.822;4.324;2024-03-08T10:29:22;8.90;99.90
22436;DHT22;11385;50.822;4.324;2024-03-08T10:31:50;8.90;99.90
22436;DHT22;11385;50.822;4.324;2024-03-08T10:34:18;8.90;99.90
22436;DHT22;11385;50.822;4.324;2024-03-08T10:36:47;9.00;99.90
22436;DHT22;11385;50.822;4.324;2024-03-08T10:39:22;9.00;99.90
22436;DHT22;11385;50.822;4.324;2024-03-08T10:41:56;9.20;99.90
22436;DHT22;11385;50.822;4.324;2024-03-08T10:44:44;9.40;99.90
22436;DHT22;11385;50.822;4.324;2024-03-08T10:47:18;9.50;99.90
22436;DHT22;11385;50.822;4.324;2024-03-08T10:50:06;9.40;99.90
22436;DHT22;11385;50.822;4.324;2024-03-08T10:52:32;9.50;99.90
22436;DHT22;11385;50.822;4.324;2024-03-08T10:55:02;9.50;99.90
22436;DHT22;11385;50.822;4.324;2024-03-08T10:57:29;9.70;99.90
22436;DHT22;11385;50.822;4.324;2024-03-08T10:59:58;9.80;99.90
22436;DHT22;11385;50.822;4.324;2024-03-08T11:02:26;9.80;99.90
22436;DHT22;11385;50.822;4.324;2024-03-08T11:04:53;9.70;99.90
22436;DHT22;11385;50.822;4.324;2024-03-08T11:07:24;9.70;99.90
22436;DHT22;11385;50.822;4.324;2024-03-08T11:09:54;9.80;99.90
22436;DHT22;11385;50.822;4.324;2024-03-08T11:12:25;10.00;99.90
22436;DHT22;11385;50.822;4.324;2024-03-08T11:14:55;9.90;99.90
22436;DHT22;11385;50.822;4.324;2024-03-08T11:17:39;10.00;99.90
22436;DHT22;11385;50.822;4.324;2024-03-08T11:19:56;10.00;99.90
22436;DHT22;11385;50.822;4.324;2024-03-08T11:22:31;10.30;99.90
22436;DHT22;11385;50.822;4.324;2024-03-08T11:25:02;10.40;99.90
22436;DHT22;11385;50.822;4.324;2024-03-08T11:27:32;10.50;99.90
22436;DHT22;11385;50.822;4.324;2024-03-08T11:30:01;10.60;99.90
22436;DHT22;11385;50.822;4.324;2024-03-08T11:32:33;10.50;99.90
22436;DHT22;11385;50.822;4.324;2024-03-08T11:35:06;10.60;99.90
22436;DHT22;11385;50.822;4.324;2024-03-08T11:37:34;10.90;99.90
22436;DHT22;11385;50.822;4.324;2024-03-08T11:40:02;10.90;99.90
22436;DHT22;11385;50.822;4.324;2024-03-08T11:42:31;10.90;99.90
22436;DHT22;11385;50.822;4.324;2024-03-08T11:45:09;10.90;99.90
22436;DHT22;11385;50.822;4.324;2024-03-08T11:47:42;11.00;99.90
22436;DHT22;11385;50.822;4.324;2024-03-08T11:50:11;11.30;99.90
22436;DHT22;11385;50.822;4.324;2024-03-08T11:52:39;11.50;99.90
22436;DHT22;11385;50.822;4.324;2024-03-08T11:55:07;11.60;99.90
22436;DHT22;11385;50.822;4.324;2024-03-08T11:57:34;11.70;99.90
22436;DHT22;11385;50.822;4.324;2024-03-08T12:00:05;11.40;99.90
22436;DHT22;11385;50.822;4.324;2024-03-08T12:02:33;11.60;99.90
22436;DHT22;11385;50.822;4.324;2024-03-08T12:05:05;11.50;99.90
22436;DHT22;11385;50.822;4.324;2024-03-08T12:07:34;11.40;99.90
22436;DHT22;11385;50.822;4.324;2024-03-08T12:12:46;11.60;99.90
22436;DHT22;11385;50.822;4.324;2024-03-08T12:15:15;11.60;99.90
22436;DHT22;11385;50.822;4.324;2024-03-08T12:17:42;11.50;99.90
22436;DHT22;11385;50.822;4.324;2024-03-08T12:20:16;11.60;99.90
22436;DHT22;11385;50.822;4.324;2024-03-08T12:22:44;11.60;99.90
22436;DHT22;11385;50.822;4.324;2024-03-08T12:25:11;11.90;99.90
22436;DHT22;11385;50.822;4.324;2024-03-08T12:27:39;12.00;99.90
22436;DHT22;11385;50.822;4.324;2024-03-08T12:30:15;11.90;99.90
22436;DHT22;11385;50.822;4.324;2024-03-08T12:32:50;12.20;99.90
22436;DHT22;11385;50.822;4.324;2024-03-08T12:35:21;12.10;99.90
22436;DHT22;11385;50.822;4.324;2024-03-08T12:37:53;12.20;99.90
22436;DHT22;11385;50.822;4.324;2024-03-08T12:40:26;12.20;99.90
22436;DHT22;11385;50.822;4.324;2024-03-08T12:42:55;12.20;99.90
22436;DHT22;11385;50.822;4.324;2024-03-08T12:45:23;12.30;99.90
22436;DHT22;11385;50.822;4.324;2024-03-08T12:47:53;12.40;99.90
22436;DHT22;11385;50.822;4.324;2024-03-08T12:50:21;12.40;99.90
22436;DHT22;11385;50.822;4.324;2024-03-08T12:52:48;12.40;99.90
22436;DHT22;11385;50.822;4.324;2024-03-08T12:55:16;12.40;99.90
22436;DHT22;11385;50.822;4.324;2024-03-08T12:57:44;12.50;99.90
22436;DHT22;11385;50.822;4.324;2024-03-08T13:00:13;12.60;99.90
22436;DHT22;11385;50.822;4.324;2024-03-08T13:02:45;12.80;99.90
22436;DHT22;11385;50.822;4.324;2024-03-08T13:05:11;12.60;99.90
22436;DHT22;11385;50.822;4.324;2024-03-08T13:07:41;12.60;99.90
22436;DHT22;11385;50.822;4.324;2024-03-08T13:10:09;12.60;99.90
22436;DHT22;11385;50.822;4.324;2024-03-08T13:12:38;12.80;99.90
22436;DHT22;11385;50.822;4.324;2024-03-08T13:15:06;12.70;99.90
22436;DHT22;11385;50.822;4.324;2024-03-08T13:17:34;12.80;99.90
22436;DHT22;11385;50.822;4.324;2024-03-08T13:20:01;13.10;99.90
22436;DHT22;11385;50.822;4.324;2024-03-08T13:22:30;13.10;99.90
22436;DHT22;11385;50.822;4.324;2024-03-08T13:24:57;13.20;99.90
22436;DHT22;11385;50.822;4.324;2024-03-08T13:27:28;13.20;99.90
22436;DHT22;11385;50.822;4.324;2024-03-08T13:29:56;13.20;99.90
22436;DHT22;11385;50.822;4.324;2024-03-08T13:32:24;13.40;99.90
22436;DHT22;11385;50.822;4.324;2024-03-08T13:34:52;13.40;99.90
22436;DHT22;11385;50.822;4.324;2024-03-08T13:37:20;13.30;99.90
22436;DHT22;11385;50.822;4.324;2024-03-08T13:39:48;13.10;99.90
22436;DHT22;11385;50.822;4.324;2024-03-08T13:42:15;13.30;99.90
22436;DHT22;11385;50.822;4.324;2024-03-08T13:44:46;13.50;99.90
22436;DHT22;11385;50.822;4.324;2024-03-08T13:47:16;13.60;99.90
22436;DHT22;11385;50.822;4.324;2024-03-08T13:49:43;13.60;99.90
22436;DHT22;11385;50.822;4.324;2024-03-08T13:52:10;13.60;99.90
22436;DHT22;11385;50.822;4.324;2024-03-08T13:54:38;13.60;99.90
22436;DHT22;11385;50.822;4.324;2024-03-08T13:57:05;13.70;99.90
22436;DHT22;11385;50.822;4.324;2024-03-08T13:59:34;13.80;99.90
22436;DHT22;11385;50.822;4.324;2024-03-08T14:02:02;13.70;99.90
22436;DHT22;11385;50.822;4.324;2024-03-08T14:04:29;13.60;99.90
22436;DHT22;11385;50.822;4.324;2024-03-08T14:06:55;13.70;99.90
22436;DHT22;11385;50.822;4.324;2024-03-08T14:09:25;13.70;99.90
22436;DHT22;11385;50.822;4.324;2024-03-08T14:11:55;13.70;99.90
22436;DHT22;11385;50.822;4.324;2024-03-08T14:14:23;13.60;99.90
22436;DHT22;11385;50.822;4.324;2024-03-08T14:16:50;13.70;99.90
22436;DHT22;11385;50.822;4.324;2024-03-08T14:19:20;13.80;99.90
22436;DHT22;11385;50.822;4.324;2024-03-08T14:21:47;13.80;99.90
22436;DHT22;11385;50.822;4.324;2024-03-08T14:24:16;13.90;99.90
22436;DHT22;11385;50.822;4.324;2024-03-08T14:26:43;14.00;99.90
22436;DHT22;11385;50.822;4.324;2024-03-08T14:29:09;13.70;99.90
22436;DHT22;11385;50.822;4.324;2024-03-08T14:31:37;13.70;99.90
22436;DHT22;11385;50.822;4.324;2024-03-08T14:34:03;13.80;99.90
22436;DHT22;11385;50.822;4.324;2024-03-08T14:36:33;13.80;99.90
22436;DHT22;11385;50.822;4.324;2024-03-08T14:39:00;13.90;99.90
22436;DHT22;11385;50.822;4.324;2024-03-08T14:41:27;13.90;99.90
22436;DHT22;11385;50.822;4.324;2024-03-08T14:43:54;14.00;99.90
22436;DHT22;11385;50.822;4.324;2024-03-08T14:46:23;14.00;99.90
22436;DHT22;11385;50.822;4.324;2024-03-08T14:48:50;14.10;99.90
22436;DHT22;11385;50.822;4.324;2024-03-08T14:51:20;14.30;99.90
22436;DHT22;11385;50.822;4.324;2024-03-08T14:53:48;14.30;99.90
22436;DHT22;11385;50.822;4.324;2024-03-08T14:56:15;14.30;99.90
22436;DHT22;11385;50.822;4.324;2024-03-08T14:58:44;14.20;99.90
22436;DHT22;11385;50.822;4.324;2024-03-08T15:01:12;14.10;99.90
22436;DHT22;11385;50.822;4.324;2024-03-08T15:03:41;14.20;99.90
22436;DHT22;11385;50.822;4.324;2024-03-08T15:06:09;14.20;99.90
22436;DHT22;11385;50.822;4.324;2024-03-08T15:08:37;14.50;99.90
22436;DHT22;11385;50.822;4.324;2024-03-08T15:11:05;14.50;99.90
22436;DHT22;11385;50.822;4.324;2024-03-08T15:13:33;14.40;99.90
22436;DHT22;11385;50.822;4.324;2024-03-08T15:16:11;14.40;99.90
22436;DHT22;11385;50.822;4.324;2024-03-08T15:18:44;14.40;99.90
22436;DHT22;11385;50.822;4.324;2024-03-08T15:21:14;14.60;99.90
22436;DHT22;11385;50.822;4.324;2024-03-08T15:23:44;14.70;99.90
22436;DHT22;11385;50.822;4.324;2024-03-08T15:26:13;14.50;99.90
22436;DHT22;11385;50.822;4.324;2024-03-08T15:28:40;14.40;99.90
22436;DHT22;11385;50.822;4.324;2024-03-08T15:31:08;14.30;99.90
22436;DHT22;11385;50.822;4.324;2024-03-08T15:33:37;14.40;99.90
22436;DHT22;11385;50.822;4.324;2024-03-08T15:36:07;14.30;99.90
22436;DHT22;11385;50.822;4.324;2024-03-08T15:38:35;14.30;99.90
22436;DHT22;11385;50.822;4.324;2024-03-08T15:41:04;14.30;99.90
22436;DHT22;11385;50.822;4.324;2024-03-08T15:43:36;14.40;99.90
22436;DHT22;11385;50.822;4.324;2024-03-08T15:46:03;14.40;99.90
22436;DHT22;11385;50.822;4.324;2024-03-08T15:48:32;14.40;99.90
22436;DHT22;11385;50.822;4.324;2024-03-08T15:51:00;14.40;99.90